createdAt,value
2019-02-08T00:00:23.722Z,2.43
2019-02-08T00:02:52.437Z,2.80
2019-02-08T00:05:21.328Z,2.67
2019-02-08T00:07:49.744Z,2.27
2019-02-08T00:10:19.504Z,2.20
2019-02-08T00:12:48.150Z,2.60
2019-02-08T00:15:24.377Z,2.87
2019-02-08T00:17:52.963Z,2.90
2019-02-08T00:20:22.187Z,2.50
2019-02-08T00:22:50.681Z,2.53
2019-02-08T00:25:21.378Z,2.83
2019-02-08T00:27:50.060Z,3.60
2019-02-08T00:30:21.451Z,3.07
2019-02-08T00:32:49.880Z,3.30
2019-02-08T00:35:18.345Z,3.47
2019-02-08T00:37:46.938Z,2.37
2019-02-08T00:40:19.316Z,2.90
2019-02-08T00:42:47.976Z,3.13
2019-02-08T00:45:17.990Z,3.23
2019-02-08T00:47:46.404Z,3.13
2019-02-08T00:50:23.606Z,3.73
2019-02-08T00:52:52.392Z,3.57
2019-02-08T00:55:21.096Z,3.30
2019-02-08T00:57:49.675Z,3.60
2019-02-08T01:00:19.016Z,3.40
2019-02-08T01:02:49.279Z,3.30
2019-02-08T01:05:28.174Z,3.20
2019-02-08T01:07:57.724Z,3.40
2019-02-08T01:10:33.684Z,3.60
2019-02-08T01:13:02.763Z,4.00
2019-02-08T01:15:32.609Z,3.60
2019-02-08T01:18:01.585Z,4.60
2019-02-08T01:20:30.368Z,3.93
2019-02-08T01:22:58.764Z,4.00
2019-02-08T01:25:28.724Z,3.93
2019-02-08T01:27:57.160Z,3.57
2019-02-08T01:30:28.287Z,3.63
2019-02-08T01:32:56.680Z,4.43
2019-02-08T01:35:26.283Z,4.00
2019-02-08T01:37:54.821Z,4.03
2019-02-08T01:40:32.185Z,4.37
2019-02-08T01:43:01.261Z,4.47
2019-02-08T01:45:32.344Z,4.97
2019-02-08T01:48:00.876Z,4.77
2019-02-08T01:50:30.941Z,4.63
2019-02-08T01:53:00.951Z,5.53
2019-02-08T01:55:32.204Z,5.60
2019-02-08T01:58:00.620Z,5.17
2019-02-08T02:00:31.765Z,5.23
2019-02-08T02:03:01.334Z,4.83
2019-02-08T02:05:29.719Z,4.70
2019-02-08T02:07:58.308Z,4.70
2019-02-08T02:10:34.987Z,5.57
2019-02-08T02:13:03.761Z,5.13
2019-02-08T02:15:32.356Z,5.20
2019-02-08T02:18:01.152Z,5.80
2019-02-08T02:20:35.384Z,6.00
2019-02-08T02:23:04.118Z,6.00
2019-02-08T02:25:32.524Z,6.07
2019-02-08T02:28:02.214Z,6.10
2019-02-08T02:30:33.650Z,6.90
2019-02-08T02:33:02.219Z,6.23
2019-02-08T02:35:30.659Z,6.47
2019-02-08T02:37:59.344Z,6.17
2019-02-08T02:40:27.891Z,6.03
2019-02-08T02:42:56.285Z,6.90
2019-02-08T02:45:33.068Z,7.13
2019-02-08T02:48:01.931Z,6.97
2019-02-08T02:50:30.584Z,6.77
2019-02-08T02:53:00.528Z,6.70
2019-02-08T02:55:30.402Z,6.83
2019-02-08T02:57:59.103Z,7.63
2019-02-08T03:00:33.486Z,7.10
2019-02-08T03:03:02.121Z,5.20
2019-02-08T03:05:30.599Z,7.40
2019-02-08T03:07:59.028Z,7.33
2019-02-08T03:10:28.024Z,7.47
2019-02-08T03:12:56.424Z,7.60
2019-02-08T03:15:25.502Z,7.50
2019-02-08T03:17:54.088Z,7.80
2019-02-08T03:20:24.116Z,7.97
2019-02-08T03:22:52.957Z,8.50
2019-02-08T03:25:24.011Z,8.50
2019-02-08T03:27:53.142Z,8.50
2019-02-08T03:30:28.038Z,8.53
2019-02-08T03:32:56.437Z,9.07
2019-02-08T03:35:26.335Z,8.93
2019-02-08T03:37:56.357Z,9.30
2019-02-08T03:40:29.387Z,9.73
2019-02-08T03:42:57.958Z,9.63
2019-02-08T03:45:28.234Z,8.00
2019-02-08T03:47:56.965Z,9.80
2019-02-08T03:50:26.075Z,9.43
2019-02-08T03:52:55.123Z,9.30
2019-02-08T03:55:24.387Z,9.00
2019-02-08T03:57:52.845Z,9.67
2019-02-08T04:00:27.904Z,8.80
2019-02-08T04:02:56.415Z,9.00
2019-02-08T04:05:26.808Z,8.60
2019-02-08T04:07:55.484Z,8.63
2019-02-08T04:10:24.055Z,9.40
2019-02-08T04:12:52.755Z,8.90
2019-02-08T04:15:23.578Z,9.37
2019-02-08T04:17:52.237Z,8.70
2019-02-08T04:20:27.440Z,9.00
2019-02-08T04:22:56.368Z,9.67
2019-02-08T04:25:25.618Z,9.27
2019-02-08T04:27:54.385Z,9.40
2019-02-08T04:30:25.397Z,9.67
2019-02-08T04:32:54.012Z,9.63
2019-02-08T04:35:22.774Z,8.93
2019-02-08T04:37:51.221Z,9.40
2019-02-08T04:40:23.550Z,8.87
2019-02-08T04:42:52.247Z,9.57
2019-02-08T04:45:20.983Z,9.33
2019-02-08T04:47:49.675Z,8.70
2019-02-08T04:50:23.362Z,10.47
2019-02-08T04:52:51.949Z,10.60
2019-02-08T04:55:20.635Z,9.10
2019-02-08T04:57:49.494Z,9.50
2019-02-08T05:00:23.209Z,8.73
2019-02-08T05:02:51.637Z,9.23
2019-02-08T05:05:20.218Z,9.47
2019-02-08T05:07:48.714Z,9.27
2019-02-08T05:10:20.256Z,9.20
2019-02-08T05:12:50.510Z,9.10
2019-02-08T05:15:19.709Z,9.13
2019-02-08T05:17:48.411Z,8.87
2019-02-08T05:20:25.664Z,9.10
2019-02-08T05:22:54.471Z,7.80
2019-02-08T05:25:23.003Z,8.70
2019-02-08T05:27:52.732Z,8.77
2019-02-08T05:30:26.876Z,8.27
2019-02-08T05:32:55.442Z,8.63
2019-02-08T05:35:24.826Z,8.40
2019-02-08T05:37:53.268Z,8.23
2019-02-08T05:40:22.157Z,8.80
2019-02-08T05:42:50.600Z,7.77
2019-02-08T05:45:20.981Z,7.70
2019-02-08T05:47:49.396Z,7.70
2019-02-08T05:50:20.080Z,8.00
2019-02-08T05:52:48.608Z,7.63
2019-02-08T05:55:19.871Z,7.20
2019-02-08T05:57:48.365Z,7.50
2019-02-08T06:00:26.603Z,7.80
2019-02-08T06:02:55.101Z,6.83
2019-02-08T06:05:24.040Z,7.80
2019-02-08T06:07:52.458Z,6.90
2019-02-08T06:10:20.920Z,6.70
2019-02-08T06:12:49.373Z,6.30
2019-02-08T06:15:21.096Z,6.00
2019-02-08T06:17:49.731Z,6.67
2019-02-08T06:20:20.522Z,5.83
2019-02-08T06:22:49.502Z,6.80
2019-02-08T06:25:20.369Z,6.20
2019-02-08T06:27:49.412Z,6.57
2019-02-08T06:30:23.221Z,5.93
2019-02-08T06:32:51.968Z,6.50
2019-02-08T06:35:23.257Z,6.40
2019-02-08T06:37:51.727Z,6.17
2019-02-08T06:40:25.388Z,6.27
2019-02-08T06:42:54.007Z,6.43
2019-02-08T06:45:24.273Z,6.00
2019-02-08T06:47:52.959Z,6.53
2019-02-08T06:50:24.209Z,6.80
2019-02-08T06:52:52.827Z,6.83
2019-02-08T06:55:21.746Z,6.43
2019-02-08T06:57:57.797Z,6.50
2019-02-08T07:00:28.101Z,7.33
2019-02-08T07:03:16.091Z,7.20
2019-02-08T07:05:48.980Z,7.63
2019-02-08T07:08:37.921Z,7.40
2019-02-08T07:11:07.981Z,7.23
2019-02-08T07:13:49.653Z,6.87
2019-02-08T07:16:25.404Z,7.07
2019-02-08T07:19:00.896Z,7.03
2019-02-08T07:21:33.953Z,6.73
2019-02-08T07:24:06.833Z,6.10
2019-02-08T07:26:39.903Z,6.17
2019-02-08T07:29:26.096Z,6.40
2019-02-08T07:31:56.193Z,5.93
2019-02-08T07:34:42.763Z,5.77
2019-02-08T07:37:12.837Z,5.50
2019-02-08T07:39:48.443Z,6.10
2019-02-08T07:42:27.286Z,5.50
2019-02-08T07:45:01.826Z,5.50
2019-02-08T07:47:34.833Z,5.97
2019-02-08T07:50:18.108Z,5.73
2019-02-08T07:53:03.985Z,5.97
2019-02-08T07:55:34.051Z,6.10
2019-02-08T07:58:06.793Z,5.73
2019-02-08T08:00:46.629Z,5.50
2019-02-08T08:03:33.233Z,5.40
2019-02-08T08:06:06.963Z,5.43
2019-02-08T08:08:43.520Z,6.03
2019-02-08T08:11:20.065Z,5.73
2019-02-08T08:14:01.979Z,6.07
2019-02-08T08:16:32.047Z,5.77
2019-02-08T08:19:11.172Z,6.27
2019-02-08T08:21:41.364Z,6.20
2019-02-08T08:24:15.663Z,6.33
2019-02-08T08:26:49.689Z,5.60
2019-02-08T08:29:29.442Z,5.80
2019-02-08T08:32:02.504Z,6.40
2019-02-08T08:34:46.012Z,5.33
2019-02-08T08:37:29.391Z,5.83
2019-02-08T08:40:00.890Z,5.93
2019-02-08T08:42:32.368Z,6.50
2019-02-08T08:45:15.534Z,6.93
2019-02-08T08:48:04.988Z,6.97
2019-02-08T08:50:39.152Z,6.83
2019-02-08T08:53:10.666Z,7.40
2019-02-08T08:56:02.973Z,6.83
2019-02-08T08:58:40.528Z,7.30
2019-02-08T09:01:20.221Z,7.20
2019-02-08T09:04:08.080Z,7.57
2019-02-08T09:06:39.581Z,7.73
2019-02-08T09:09:28.789Z,7.17
2019-02-08T09:12:03.025Z,7.77
2019-02-08T09:15:05.772Z,7.40
2019-02-08T09:17:42.925Z,8.27
2019-02-08T09:20:42.355Z,7.00
2019-02-08T09:23:28.639Z,7.13
2019-02-08T09:26:22.509Z,7.57
2019-02-08T09:28:57.140Z,7.90
2019-02-08T09:31:37.231Z,7.90
2019-02-08T09:34:35.330Z,8.00
2019-02-08T09:37:35.180Z,8.70
2019-02-08T09:40:22.895Z,8.90
2019-02-08T09:43:06.180Z,8.67
2019-02-08T09:45:46.071Z,8.90
2019-02-08T09:48:23.796Z,8.43
2019-02-08T09:51:11.866Z,8.80
2019-02-08T09:53:55.268Z,8.87
2019-02-08T09:56:57.984Z,8.70
2019-02-08T09:59:41.452Z,8.83
2019-02-08T10:02:34.993Z,9.30
2019-02-08T10:05:23.734Z,9.23
2019-02-08T10:08:07.099Z,9.63
2019-02-08T10:10:57.827Z,9.63
2019-02-08T10:13:59.183Z,10.30
2019-02-08T10:16:42.596Z,10.03
2019-02-08T10:19:30.577Z,9.37
2019-02-08T10:22:19.723Z,10.13
2019-02-08T10:25:12.078Z,10.40
2019-02-08T10:28:16.301Z,10.50
2019-02-08T10:31:22.093Z,11.20
2019-02-08T10:34:12.797Z,10.33
2019-02-08T10:37:01.911Z,10.60
2019-02-08T10:39:33.406Z,12.03
2019-02-08T10:42:10.794Z,10.93
2019-02-08T10:44:45.168Z,10.80
2019-02-08T10:47:32.742Z,11.33
2019-02-08T10:50:32.800Z,11.33
2019-02-08T10:53:32.604Z,11.97
2019-02-08T10:56:29.520Z,12.17
2019-02-08T10:59:01.269Z,12.50
2019-02-08T11:01:44.812Z,12.00
2019-02-08T11:04:28.379Z,11.97
2019-02-08T11:07:29.871Z,13.13
2019-02-08T11:10:01.354Z,11.90
2019-02-08T11:13:07.211Z,12.93
2019-02-08T11:15:59.096Z,13.53
2019-02-08T11:18:36.393Z,12.27
2019-02-08T11:21:05.109Z,12.77
2019-02-08T11:23:33.543Z,13.37
2019-02-08T11:26:03.225Z,12.47
2019-02-08T11:28:31.633Z,13.10
2019-02-08T11:31:00.307Z,13.53
2019-02-08T11:33:28.716Z,13.30
2019-02-08T11:35:57.145Z,12.47
2019-02-08T11:38:25.788Z,13.00
2019-02-08T11:40:54.217Z,12.00
2019-02-08T11:43:22.621Z,12.17
2019-02-08T11:45:52.319Z,12.80
2019-02-08T11:48:20.891Z,11.57
2019-02-08T11:50:49.623Z,11.97
2019-02-08T11:53:18.078Z,10.73
2019-02-08T11:55:46.652Z,10.20
2019-02-08T11:58:15.292Z,10.70
2019-02-08T12:00:48.315Z,10.37
2019-02-08T12:03:16.743Z,9.60
2019-02-08T12:05:45.343Z,9.50
2019-02-08T12:08:13.784Z,9.97
2019-02-08T12:10:42.187Z,9.70
2019-02-08T12:13:12.216Z,8.67
2019-02-08T12:15:40.913Z,8.73
2019-02-08T12:18:09.389Z,8.90
2019-02-08T12:20:38.400Z,7.60
2019-02-08T12:23:06.942Z,7.53
2019-02-08T12:25:37.166Z,7.60
2019-02-08T12:28:05.708Z,6.83
2019-02-08T12:30:39.825Z,7.77
2019-02-08T12:33:08.396Z,7.27
2019-02-08T12:35:36.878Z,6.50
2019-02-08T12:38:05.364Z,6.73
2019-02-08T12:40:33.877Z,6.53
2019-02-08T12:43:02.294Z,6.70
2019-02-08T12:45:30.695Z,6.40
2019-02-08T12:48:03.820Z,5.80
2019-02-08T12:50:32.656Z,5.87
2019-02-08T12:53:01.069Z,6.27
2019-02-08T12:55:29.733Z,6.07
2019-02-08T12:57:58.130Z,6.17
2019-02-08T13:00:27.611Z,5.83
2019-02-08T13:02:56.000Z,5.40
2019-02-08T13:05:29.108Z,5.97
2019-02-08T13:08:01.004Z,5.30
2019-02-08T13:10:31.177Z,5.90
2019-02-08T13:13:23.226Z,6.03
2019-02-08T13:15:54.808Z,5.53
2019-02-08T13:18:30.109Z,5.67
2019-02-08T13:26:52.597Z,4.53
2019-02-08T13:29:17.563Z,5.13
2019-02-08T13:31:54.129Z,5.50
2019-02-08T13:34:25.532Z,4.53
2019-02-08T13:36:57.212Z,4.53
2019-02-08T13:39:31.363Z,4.77
2019-02-08T13:42:06.057Z,4.87
2019-02-08T13:44:36.292Z,5.13
2019-02-08T13:47:06.731Z,4.43
2019-02-08T13:49:35.430Z,4.00
2019-02-08T13:52:06.603Z,4.17
2019-02-08T13:54:34.984Z,4.00
2019-02-08T13:57:05.017Z,3.60
2019-02-08T13:59:33.492Z,3.60
2019-02-08T14:02:01.921Z,3.73
2019-02-08T14:04:30.581Z,3.90
2019-02-08T14:06:59.002Z,3.40
2019-02-08T14:09:27.411Z,3.43
2019-02-08T14:11:55.854Z,3.57
2019-02-08T14:14:24.620Z,4.03
2019-02-08T14:16:53.040Z,3.23
2019-02-08T14:19:21.440Z,3.00
2019-02-08T14:21:49.857Z,3.47
2019-02-08T14:24:18.494Z,3.50
2019-02-08T14:26:46.903Z,3.27
2019-02-08T14:29:15.368Z,3.40
2019-02-08T14:31:44.968Z,2.97
2019-02-08T14:34:13.792Z,2.87
2019-02-08T14:36:43.765Z,2.80
2019-02-08T14:39:13.722Z,2.83
2019-02-08T14:41:42.156Z,2.93
2019-02-08T14:44:10.608Z,2.40
2019-02-08T14:46:39.019Z,2.73
2019-02-08T14:49:07.551Z,2.70
2019-02-08T14:51:35.963Z,2.60
2019-02-08T14:54:05.856Z,2.30
2019-02-08T14:56:34.432Z,2.63
2019-02-08T14:59:03.105Z,2.60
2019-02-08T15:01:31.519Z,2.70
2019-02-08T15:03:59.909Z,2.70
2019-02-08T15:06:28.337Z,2.47
2019-02-08T15:08:56.733Z,2.40
2019-02-08T15:11:25.160Z,2.13
2019-02-08T15:13:53.590Z,1.80
2019-02-08T15:16:21.996Z,2.50
2019-02-08T15:18:50.409Z,2.20
2019-02-08T15:21:18.831Z,2.23
2019-02-08T15:23:47.256Z,1.90
2019-02-08T15:26:15.703Z,2.30
2019-02-08T15:28:44.095Z,2.20
2019-02-08T15:31:12.576Z,3.13
2019-02-08T15:33:41.172Z,2.17
2019-02-08T15:36:09.588Z,2.27
2019-02-08T15:38:37.998Z,2.97
2019-02-08T15:41:06.466Z,3.07
2019-02-08T15:43:34.864Z,2.30
2019-02-08T15:46:03.361Z,2.10
2019-02-08T15:48:31.840Z,2.33
2019-02-08T15:51:00.318Z,2.27
2019-02-08T15:53:28.985Z,2.60
2019-02-08T15:56:00.463Z,2.17
2019-02-08T15:58:30.758Z,2.27
2019-02-08T16:00:59.460Z,2.57
2019-02-08T16:03:27.884Z,2.10
2019-02-08T16:05:56.528Z,2.07
2019-02-08T16:08:25.031Z,2.47
2019-02-08T16:10:53.432Z,2.60
2019-02-08T16:13:21.860Z,2.67
2019-02-08T16:15:50.351Z,2.63
2019-02-08T16:18:18.835Z,3.17
2019-02-08T16:20:47.637Z,2.43
2019-02-08T16:23:16.079Z,3.40
2019-02-08T16:25:44.496Z,2.73
2019-02-08T16:28:13.021Z,2.73
2019-02-08T16:30:41.511Z,2.33
2019-02-08T16:33:09.933Z,2.97
2019-02-08T16:35:38.584Z,2.77
2019-02-08T16:38:07.538Z,2.43
2019-02-08T16:40:36.036Z,2.80
2019-02-08T16:43:06.260Z,2.80
2019-02-08T16:45:38.870Z,2.77
2019-02-08T16:48:09.243Z,3.03
2019-02-08T16:50:37.743Z,2.67
2019-02-08T16:53:08.297Z,2.77
2019-02-08T16:55:36.892Z,2.67
2019-02-08T16:58:07.105Z,2.67
2019-02-08T17:00:37.764Z,2.80
2019-02-08T17:03:13.948Z,2.70
2019-02-08T17:05:45.933Z,2.83
2019-02-08T17:08:14.789Z,2.83
2019-02-08T17:10:44.688Z,2.30
2019-02-08T17:13:15.716Z,2.77
2019-02-08T17:15:44.589Z,3.70
2019-02-08T17:18:13.008Z,3.87
2019-02-08T17:20:44.500Z,2.90
2019-02-08T17:23:14.448Z,2.90
2019-02-08T17:25:42.936Z,2.70
2019-02-08T17:28:11.676Z,3.20
2019-02-08T17:30:40.168Z,2.73
2019-02-08T17:33:09.497Z,3.30
2019-02-08T17:35:37.968Z,2.80
2019-02-08T17:38:06.512Z,2.83
2019-02-08T17:40:43.929Z,2.43
2019-02-08T17:43:15.009Z,3.00
2019-02-08T17:45:43.490Z,2.30
2019-02-08T17:48:14.459Z,2.77
2019-02-08T17:50:45.252Z,3.07
2019-02-08T17:53:13.773Z,2.97
2019-02-08T17:55:42.202Z,2.20
2019-02-08T17:58:10.605Z,3.07
2019-02-08T18:00:48.086Z,2.77
2019-02-08T18:03:16.546Z,2.33
2019-02-08T18:05:45.562Z,2.40
2019-02-08T18:08:14.511Z,2.50
2019-02-08T18:10:43.047Z,3.20
2019-02-08T18:13:11.524Z,2.80
2019-02-08T18:15:39.980Z,2.20
2019-02-08T18:18:10.832Z,2.50
2019-02-08T18:20:45.183Z,2.50
2019-02-08T18:23:21.160Z,2.57
2019-02-08T18:25:50.910Z,2.83
2019-02-08T18:28:24.701Z,2.20
2019-02-08T18:30:53.074Z,2.87
2019-02-08T18:33:21.504Z,2.40
2019-02-08T18:35:50.005Z,2.80
2019-02-08T18:38:18.855Z,2.90
2019-02-08T18:40:47.358Z,2.50
2019-02-08T18:43:17.348Z,2.87
2019-02-08T18:45:45.861Z,2.60
2019-02-08T18:48:16.065Z,2.60
2019-02-08T18:50:52.399Z,3.30
2019-02-08T18:53:23.491Z,2.43
2019-02-08T18:55:56.270Z,2.37
2019-02-08T18:58:24.703Z,2.80
2019-02-08T19:01:01.776Z,1.90
2019-02-08T19:03:30.364Z,2.00
2019-02-08T19:06:08.240Z,2.67
2019-02-08T19:08:36.816Z,2.60
2019-02-08T19:11:05.350Z,2.10
2019-02-08T19:13:37.179Z,2.13
2019-02-08T19:16:05.869Z,2.83
2019-02-08T19:18:37.053Z,3.07
2019-02-08T19:21:05.516Z,2.73
2019-02-08T19:23:35.710Z,2.83
2019-02-08T19:26:07.283Z,2.20
2019-02-08T19:28:35.666Z,2.27
2019-02-08T19:31:04.108Z,2.40
2019-02-08T19:33:35.241Z,2.50
2019-02-08T19:36:04.000Z,2.30
2019-02-08T19:38:35.366Z,3.00
2019-02-08T19:41:07.516Z,2.70
2019-02-08T19:43:37.613Z,2.10
2019-02-08T19:46:07.648Z,2.23
2019-02-08T19:48:37.910Z,2.03
2019-02-08T19:51:06.325Z,2.40
2019-02-08T19:53:34.727Z,2.60
2019-02-08T19:56:03.154Z,2.60
2019-02-08T19:58:34.561Z,2.63
2019-02-08T20:01:03.765Z,2.30
2019-02-08T20:03:32.156Z,2.30
2019-02-08T20:06:00.671Z,2.40
2019-02-08T20:08:29.060Z,2.07
2019-02-08T20:10:57.723Z,2.57
2019-02-08T20:13:28.961Z,2.67
2019-02-08T20:15:57.392Z,2.10
2019-02-08T20:18:25.783Z,2.70
2019-02-08T20:20:54.638Z,2.90
2019-02-08T20:23:26.223Z,2.40
2019-02-08T20:25:56.170Z,2.90
2019-02-08T20:28:24.704Z,2.30
2019-02-08T20:30:53.359Z,2.57
2019-02-08T20:33:21.752Z,2.37
2019-02-08T20:35:50.168Z,2.23
2019-02-08T20:38:18.580Z,2.50
2019-02-08T20:40:49.465Z,2.60
2019-02-08T20:43:17.872Z,2.33
2019-02-08T20:45:46.298Z,2.70
2019-02-08T20:48:19.823Z,3.13
2019-02-08T20:50:48.323Z,2.97
2019-02-08T20:53:17.155Z,2.17
2019-02-08T20:55:45.664Z,2.10
2019-02-08T20:58:14.143Z,24.00
2019-02-08T21:00:45.618Z,2.00
2019-02-08T21:03:15.802Z,2.70
2019-02-08T21:05:44.799Z,2.50
2019-02-08T21:08:13.460Z,1.60
2019-02-08T21:10:42.101Z,2.10
2019-02-08T21:13:10.968Z,1.97
2019-02-08T21:15:39.987Z,1.87
2019-02-08T21:18:11.976Z,2.27
2019-02-08T21:20:40.885Z,2.10
2019-02-08T21:23:09.585Z,1.90
2019-02-08T21:25:39.492Z,1.87
2019-02-08T21:28:10.762Z,2.47
2019-02-08T21:30:39.448Z,2.03
2019-02-08T21:33:09.818Z,2.20
2019-02-08T21:35:38.403Z,2.63
2019-02-08T21:38:07.993Z,2.43
2019-02-08T21:40:39.753Z,2.10
2019-02-08T21:43:08.396Z,2.10
2019-02-08T21:45:39.636Z,1.93
2019-02-08T21:48:10.297Z,2.30
2019-02-08T21:50:38.842Z,2.70
2019-02-08T21:53:07.383Z,2.33
2019-02-08T21:55:35.879Z,2.60
2019-02-08T21:58:06.389Z,2.40
2019-02-08T22:00:37.588Z,2.13
2019-02-08T22:03:07.247Z,2.40
2019-02-08T22:05:41.217Z,2.23
2019-02-08T22:08:09.840Z,2.27
2019-02-08T22:10:39.781Z,2.60
2019-02-08T22:13:08.321Z,2.20
2019-02-08T22:15:38.932Z,2.00
2019-02-08T22:18:07.908Z,2.30
2019-02-08T22:20:36.323Z,2.53
2019-02-08T22:23:08.440Z,2.40
2019-02-08T22:25:37.371Z,2.33
2019-02-08T22:28:06.399Z,2.50
2019-02-08T22:30:34.867Z,2.27
2019-02-08T22:33:08.100Z,2.17
2019-02-08T22:35:38.171Z,2.23
2019-02-08T22:38:08.729Z,2.27
2019-02-08T22:40:37.555Z,2.17
2019-02-08T22:43:06.723Z,2.50
2019-02-08T22:45:41.437Z,2.43
2019-02-08T22:48:10.047Z,2.43
2019-02-08T22:50:41.706Z,2.50
2019-02-08T22:53:17.860Z,2.17
2019-02-08T22:55:46.963Z,1.87
2019-02-08T22:58:17.835Z,2.53
2019-02-08T23:00:55.944Z,2.20
2019-02-08T23:03:24.666Z,2.50
2019-02-08T23:05:57.364Z,2.20
2019-02-08T23:08:25.781Z,2.03
2019-02-08T23:10:57.212Z,2.00
2019-02-08T23:13:25.886Z,2.50
2019-02-08T23:15:54.341Z,2.50
2019-02-08T23:18:22.741Z,2.40
2019-02-08T23:20:51.396Z,1.90
2019-02-08T23:23:21.334Z,2.67
2019-02-08T23:25:51.980Z,2.03
2019-02-08T23:28:20.309Z,1.67
2019-02-08T23:30:48.740Z,1.90
2019-02-08T23:33:17.220Z,2.50
2019-02-08T23:35:45.741Z,2.60
2019-02-08T23:38:14.140Z,2.10
2019-02-08T23:40:45.063Z,2.20
2019-02-08T23:43:13.510Z,2.30
2019-02-08T23:45:41.966Z,1.93
2019-02-08T23:48:14.873Z,2.50
2019-02-08T23:50:40.773Z,2.30
2019-02-08T23:53:12.483Z,2.17
2019-02-08T23:55:40.945Z,2.20
2019-02-08T23:58:09.368Z,2.10
